createdAt,value
2022-10-17T00:01:56.711Z,100.00
2022-10-17T00:04:26.495Z,100.00
2022-10-17T00:06:57.841Z,100.00
2022-10-17T00:09:28.184Z,99.36
2022-10-17T00:12:00.700Z,98.82
2022-10-17T00:14:30.808Z,100.00
2022-10-17T00:17:01.486Z,100.00
2022-10-17T00:19:32.148Z,100.00
2022-10-17T00:22:03.400Z,100.00
2022-10-17T00:24:33.098Z,100.00
2022-10-17T00:27:03.208Z,100.00
2022-10-17T00:29:33.543Z,99.28
2022-10-17T00:32:03.646Z,97.80
2022-10-17T00:34:34.108Z,99.47
2022-10-17T00:37:05.701Z,100.00
2022-10-17T00:39:38.029Z,100.00
2022-10-17T00:42:12.237Z,100.00
2022-10-17T00:44:44.425Z,100.00
2022-10-17T00:47:20.749Z,100.00
2022-10-17T00:49:52.052Z,100.00
2022-10-17T00:52:25.705Z,100.00
2022-10-17T00:55:00.764Z,100.00
2022-10-17T00:57:33.469Z,100.00
2022-10-17T01:00:08.171Z,100.00
2022-10-17T01:02:39.277Z,100.00
2022-10-17T01:05:11.540Z,100.00
2022-10-17T01:07:43.666Z,100.00
2022-10-17T01:10:15.617Z,99.95
2022-10-17T01:13:10.016Z,99.06
2022-10-17T01:15:58.312Z,99.68
2022-10-17T01:18:45.941Z,100.00
2022-10-17T01:21:18.558Z,100.00
2022-10-17T01:23:53.161Z,100.00
2022-10-17T01:26:57.257Z,100.00
2022-10-17T01:30:05.486Z,100.00
2022-10-17T01:32:48.626Z,100.00
2022-10-17T01:35:31.305Z,100.00
2022-10-17T01:38:19.171Z,100.00
2022-10-17T01:41:15.830Z,100.00
2022-10-17T01:43:54.718Z,100.00
2022-10-17T01:46:50.951Z,100.00
2022-10-17T01:49:27.077Z,100.00
2022-10-17T01:52:08.469Z,100.00
2022-10-17T01:54:44.220Z,100.00
2022-10-17T01:57:28.008Z,100.00
2022-10-17T02:00:00.473Z,100.00
2022-10-17T02:02:32.149Z,100.00
2022-10-17T02:05:05.372Z,100.00
2022-10-17T02:07:36.129Z,100.00
2022-10-17T02:10:21.285Z,100.00
2022-10-17T02:13:11.108Z,100.00
2022-10-17T02:16:07.215Z,100.00
2022-10-17T02:18:51.045Z,100.00
2022-10-17T02:21:29.025Z,100.00
2022-10-17T02:24:17.834Z,100.00
2022-10-17T02:27:09.850Z,100.00
2022-10-17T02:29:59.398Z,100.00
2022-10-17T02:33:10.260Z,100.00
2022-10-17T02:35:46.113Z,100.00
2022-10-17T02:38:19.267Z,100.00
2022-10-17T02:40:53.479Z,100.00
2022-10-17T02:43:24.499Z,100.00
2022-10-17T02:45:54.954Z,100.00
2022-10-17T02:48:57.163Z,100.00
2022-10-17T02:51:42.588Z,100.00
2022-10-17T02:54:22.197Z,100.00
2022-10-17T02:56:56.263Z,100.00
2022-10-17T02:59:27.869Z,100.00
2022-10-17T03:01:57.430Z,100.00
2022-10-17T03:04:27.305Z,100.00
2022-10-17T03:06:58.214Z,100.00
2022-10-17T03:09:28.264Z,100.00
2022-10-17T03:11:58.234Z,100.00
2022-10-17T03:14:27.969Z,100.00
2022-10-17T03:16:57.166Z,100.00
2022-10-17T03:19:26.669Z,100.00
2022-10-17T03:21:57.214Z,100.00
2022-10-17T03:24:27.164Z,100.00
2022-10-17T03:26:56.841Z,100.00
2022-10-17T03:29:26.016Z,100.00
2022-10-17T03:31:56.439Z,100.00
2022-10-17T03:34:25.671Z,100.00
2022-10-17T03:36:55.777Z,100.00
2022-10-17T03:39:26.334Z,100.00
2022-10-17T03:41:55.941Z,100.00
2022-10-17T03:44:25.513Z,100.00
2022-10-17T03:46:55.623Z,100.00
2022-10-17T03:49:25.242Z,100.00
2022-10-17T03:51:54.303Z,100.00
2022-10-17T03:54:24.147Z,100.00
2022-10-17T03:56:53.663Z,100.00
2022-10-17T03:59:22.790Z,100.00
2022-10-17T04:02:00.538Z,100.00
2022-10-17T04:04:30.343Z,100.00
2022-10-17T04:06:59.433Z,100.00
2022-10-17T04:09:29.884Z,100.00
2022-10-17T04:12:19.043Z,100.00
2022-10-17T04:14:49.259Z,100.00
2022-10-17T04:17:18.769Z,100.00
2022-10-17T04:19:50.191Z,100.00
2022-10-17T04:22:23.471Z,100.00
2022-10-17T04:24:55.699Z,100.00
2022-10-17T04:27:46.052Z,100.00
2022-10-17T04:30:15.686Z,100.00
2022-10-17T04:32:44.757Z,100.00
2022-10-17T04:35:17.051Z,100.00
2022-10-17T04:37:49.552Z,100.00
2022-10-17T04:40:21.667Z,100.00
2022-10-17T04:42:50.975Z,100.00
2022-10-17T04:45:21.820Z,100.00
2022-10-17T04:47:53.776Z,100.00
2022-10-17T04:50:22.869Z,100.00
2022-10-17T04:53:09.406Z,100.00
2022-10-17T04:55:40.027Z,100.00
2022-10-17T04:58:08.787Z,100.00
2022-10-17T05:00:37.790Z,100.00
2022-10-17T05:03:22.734Z,100.00
2022-10-17T05:05:52.173Z,100.00
2022-10-17T05:08:20.811Z,100.00
2022-10-17T05:10:49.568Z,100.00
2022-10-17T05:13:18.095Z,100.00
2022-10-17T05:15:46.571Z,100.00
2022-10-17T05:18:15.150Z,100.00
2022-10-17T05:20:44.169Z,100.00
2022-10-17T05:23:13.735Z,100.00
2022-10-17T05:25:43.987Z,100.00
2022-10-17T05:28:12.982Z,100.00
2022-10-17T05:30:42.993Z,100.00
2022-10-17T05:33:11.687Z,100.00
2022-10-17T05:35:40.472Z,100.00
2022-10-17T05:38:09.187Z,100.00
2022-10-17T05:40:39.721Z,100.00
2022-10-17T05:43:10.023Z,100.00
2022-10-17T05:45:39.420Z,100.00
2022-10-17T05:48:09.424Z,100.00
2022-10-17T05:50:38.012Z,100.00
2022-10-17T05:53:11.416Z,100.00
2022-10-17T05:55:46.650Z,100.00
2022-10-17T05:58:22.083Z,100.00
2022-10-17T06:01:04.476Z,100.00
2022-10-17T06:03:34.411Z,99.97
2022-10-17T06:06:08.699Z,99.50
2022-10-17T06:08:38.853Z,99.41
2022-10-17T06:11:10.380Z,100.00
2022-10-17T06:13:40.150Z,100.00
2022-10-17T06:16:15.549Z,99.47
2022-10-17T06:18:44.168Z,96.69
2022-10-17T06:21:17.728Z,94.29
2022-10-17T06:23:48.634Z,94.52
2022-10-17T06:26:47.976Z,86.99
2022-10-17T06:29:17.792Z,86.12
2022-10-17T06:31:53.957Z,81.66
2022-10-17T06:34:22.951Z,80.22
2022-10-17T06:36:51.767Z,80.10
2022-10-17T06:39:21.128Z,78.94
2022-10-17T06:42:02.688Z,78.94
2022-10-17T06:44:54.542Z,78.35
2022-10-17T06:47:35.750Z,76.16
2022-10-17T06:50:12.396Z,74.45
2022-10-17T06:52:59.965Z,71.94
2022-10-17T06:55:45.874Z,69.98
2022-10-17T06:58:21.361Z,70.30
2022-10-17T07:01:01.007Z,68.15
2022-10-17T07:03:30.427Z,67.70
2022-10-17T07:05:59.703Z,67.31
2022-10-17T07:08:29.092Z,67.83
2022-10-17T07:10:58.819Z,67.48
2022-10-17T07:13:28.540Z,66.44
2022-10-17T07:16:02.058Z,65.06
2022-10-17T07:18:31.936Z,64.49
2022-10-17T07:21:01.239Z,63.49
2022-10-17T07:23:30.241Z,62.74
2022-10-17T07:26:03.275Z,62.35
2022-10-17T07:28:31.827Z,62.38
2022-10-17T07:31:10.296Z,61.10
2022-10-17T07:33:39.258Z,59.92
2022-10-17T07:36:08.713Z,59.50
2022-10-17T07:38:38.118Z,58.96
2022-10-17T07:41:09.255Z,59.19
2022-10-17T07:43:38.251Z,58.53
2022-10-17T07:46:08.804Z,56.79
2022-10-17T07:48:39.534Z,56.20
2022-10-17T07:51:10.271Z,55.73
2022-10-17T07:53:41.792Z,55.12
2022-10-17T07:56:13.464Z,54.66
2022-10-17T07:58:42.441Z,53.68
2022-10-17T08:01:15.662Z,53.53
2022-10-17T08:03:46.785Z,52.22
2022-10-17T08:06:15.911Z,51.13
2022-10-17T08:08:45.094Z,50.28
2022-10-17T08:11:15.660Z,49.55
2022-10-17T08:13:44.605Z,49.83
2022-10-17T08:16:13.934Z,49.00
2022-10-17T08:18:44.091Z,49.07
2022-10-17T08:21:13.726Z,48.82
2022-10-17T08:23:43.239Z,47.70
2022-10-17T08:26:13.703Z,45.40
2022-10-17T08:28:42.503Z,46.06
2022-10-17T08:31:14.823Z,43.43
2022-10-17T08:33:43.401Z,42.92
2022-10-17T08:36:15.090Z,42.34
2022-10-17T08:38:46.951Z,42.66
2022-10-17T08:41:55.544Z,42.93
2022-10-17T08:44:36.229Z,42.38
2022-10-17T08:47:20.171Z,43.03
2022-10-17T08:49:55.921Z,41.25
2022-10-17T08:52:33.270Z,40.11
2022-10-17T08:55:02.099Z,39.67
2022-10-17T08:57:31.128Z,39.73
2022-10-17T09:00:00.266Z,39.69
2022-10-17T09:02:39.112Z,39.83
2022-10-17T09:05:28.973Z,40.54
2022-10-17T09:08:03.722Z,38.82
2022-10-17T09:11:01.701Z,37.41
2022-10-17T09:13:39.272Z,37.91
2022-10-17T09:16:31.417Z,36.90
2022-10-17T09:19:10.731Z,37.38
2022-10-17T09:21:48.037Z,36.99
2022-10-17T09:24:39.856Z,35.21
2022-10-17T09:27:31.360Z,35.31
2022-10-17T09:30:46.199Z,35.77
2022-10-17T09:33:34.317Z,35.92
2022-10-17T09:36:09.626Z,35.70
2022-10-17T09:38:42.877Z,34.83
2022-10-17T09:41:46.422Z,33.84
2022-10-17T09:44:18.495Z,33.46
2022-10-17T09:47:15.712Z,32.66
2022-10-17T09:49:47.171Z,32.74
2022-10-17T09:52:41.209Z,32.10
2022-10-17T09:55:36.273Z,32.18
2022-10-17T09:58:06.387Z,32.19
2022-10-17T10:00:47.400Z,33.10
2022-10-17T10:03:22.300Z,34.80
2022-10-17T10:06:06.234Z,33.65
2022-10-17T10:08:38.104Z,33.00
2022-10-17T10:11:13.879Z,31.99
2022-10-17T10:13:43.668Z,31.61
2022-10-17T10:16:17.551Z,31.97
2022-10-17T10:18:48.769Z,32.72
2022-10-17T10:21:27.844Z,33.44
2022-10-17T10:24:14.990Z,33.19
2022-10-17T10:26:48.073Z,32.51
2022-10-17T10:29:34.662Z,32.33
2022-10-17T10:32:23.792Z,31.62
2022-10-17T10:34:55.307Z,31.01
2022-10-17T10:37:29.269Z,31.50
2022-10-17T10:40:01.329Z,31.96
2022-10-17T10:42:39.749Z,33.36
2022-10-17T10:45:35.889Z,33.52
2022-10-17T10:48:20.272Z,32.42
2022-10-17T10:50:57.868Z,31.49
2022-10-17T10:53:26.595Z,32.00
2022-10-17T10:56:00.421Z,32.07
2022-10-17T10:58:47.480Z,33.01
2022-10-17T11:01:30.534Z,32.60
2022-10-17T11:04:23.799Z,31.72
2022-10-17T11:06:59.475Z,30.41
2022-10-17T11:09:33.961Z,29.79
2022-10-17T11:12:07.019Z,29.41
2022-10-17T11:14:50.413Z,29.98
2022-10-17T11:17:35.289Z,29.82
2022-10-17T11:20:09.681Z,29.67
2022-10-17T11:23:03.401Z,29.64
2022-10-17T11:25:31.803Z,28.72
2022-10-17T11:28:04.846Z,29.24
2022-10-17T11:30:47.257Z,28.11
2022-10-17T11:33:40.743Z,29.37
2022-10-17T11:36:10.832Z,28.71
2022-10-17T11:39:09.424Z,28.20
2022-10-17T11:41:40.879Z,27.78
2022-10-17T11:44:43.384Z,27.52
2022-10-17T11:47:49.831Z,27.83
2022-10-17T11:53:17.125Z,27.28
2022-10-17T11:55:47.532Z,27.71
2022-10-17T11:58:25.191Z,27.51
2022-10-17T12:01:12.547Z,26.65
2022-10-17T12:04:05.160Z,26.12
2022-10-17T12:07:02.497Z,24.95
2022-10-17T12:09:50.025Z,24.01
2022-10-17T12:12:37.183Z,24.73
2022-10-17T12:15:26.495Z,25.82
2022-10-17T12:17:58.553Z,26.16
2022-10-17T12:20:37.770Z,26.59
2022-10-17T12:23:23.364Z,26.38
2022-10-17T12:26:01.162Z,26.34
2022-10-17T12:28:49.856Z,26.38
2022-10-17T12:31:19.388Z,26.48
2022-10-17T12:33:57.673Z,25.55
2022-10-17T12:36:29.592Z,26.34
2022-10-17T12:39:03.925Z,26.24
2022-10-17T12:41:38.722Z,25.10
2022-10-17T12:44:14.265Z,25.87
2022-10-17T12:46:58.582Z,26.24
2022-10-17T12:49:56.445Z,25.23
2022-10-17T12:52:27.413Z,25.06
2022-10-17T12:55:12.014Z,26.25
2022-10-17T12:57:48.818Z,25.59
2022-10-17T13:01:05.149Z,24.67
2022-10-17T13:03:42.725Z,24.99
2022-10-17T13:06:22.825Z,25.62
2022-10-17T13:09:03.568Z,25.25
2022-10-17T13:11:36.599Z,25.93
2022-10-17T13:14:13.029Z,25.31
2022-10-17T13:16:52.701Z,25.32
2022-10-17T13:19:24.323Z,25.52
2022-10-17T13:22:06.500Z,25.34
2022-10-17T13:24:38.803Z,25.57
2022-10-17T13:27:25.207Z,26.65
2022-10-17T13:29:56.438Z,27.81
2022-10-17T13:32:28.149Z,28.35
2022-10-17T13:35:10.290Z,28.00
2022-10-17T13:37:41.955Z,28.57
2022-10-17T13:40:49.664Z,28.43
2022-10-17T13:43:21.337Z,26.86
2022-10-17T13:45:55.686Z,26.80
2022-10-17T13:48:27.012Z,26.78
2022-10-17T13:51:01.762Z,26.08
2022-10-17T13:53:37.500Z,27.93
2022-10-17T13:56:29.251Z,27.00
2022-10-17T13:59:05.234Z,27.15
2022-10-17T14:01:33.870Z,26.88
2022-10-17T14:04:09.418Z,27.22
2022-10-17T14:06:49.804Z,27.18
2022-10-17T14:09:30.502Z,27.82
2022-10-17T14:12:12.953Z,28.43
2022-10-17T14:15:09.352Z,29.09
2022-10-17T14:17:38.754Z,29.35
2022-10-17T14:23:21.559Z,29.28
2022-10-17T14:25:47.107Z,30.09
2022-10-17T14:28:17.121Z,29.23
2022-10-17T14:30:56.724Z,29.85
2022-10-17T14:33:31.477Z,29.92
2022-10-17T14:36:03.117Z,31.07
2022-10-17T14:38:32.094Z,32.60
2022-10-17T14:44:01.689Z,34.79
2022-10-17T14:46:30.426Z,35.59
2022-10-17T14:49:24.309Z,36.87
2022-10-17T14:52:28.514Z,37.81
2022-10-17T14:54:58.622Z,38.78
2022-10-17T14:57:35.211Z,39.69
2022-10-17T15:00:04.409Z,39.90
2022-10-17T15:02:33.170Z,40.02
2022-10-17T15:05:01.785Z,40.29
2022-10-17T15:07:30.247Z,40.70
2022-10-17T15:09:58.678Z,41.20
2022-10-17T15:12:27.262Z,41.80
2022-10-17T15:14:55.908Z,43.09
2022-10-17T15:17:30.866Z,43.99
2022-10-17T15:19:59.534Z,45.10
2022-10-17T15:22:28.128Z,46.60
2022-10-17T15:24:57.057Z,49.03
2022-10-17T15:27:27.131Z,49.26
2022-10-17T15:29:55.615Z,51.28
2022-10-17T15:32:24.046Z,51.18
2022-10-17T15:34:52.518Z,53.65
2022-10-17T15:37:23.852Z,54.80
2022-10-17T16:08:23.803Z,61.30
2022-10-17T16:10:53.356Z,62.99
2022-10-17T16:13:24.486Z,60.21
2022-10-17T16:15:52.990Z,60.24
2022-10-17T16:18:21.556Z,61.08
2022-10-17T16:20:50.625Z,65.08
2022-10-17T16:23:19.052Z,68.71
2022-10-17T16:25:47.514Z,70.31
2022-10-17T16:28:15.887Z,71.31
2022-10-17T16:30:46.427Z,72.21
2022-10-17T16:33:15.221Z,72.64
2022-10-17T16:35:43.754Z,73.17
2022-10-17T16:38:12.107Z,73.71
2022-10-17T16:40:41.258Z,74.53
2022-10-17T16:43:13.443Z,74.73
2022-10-17T16:45:42.026Z,73.51
2022-10-17T16:48:11.002Z,71.72
2022-10-17T16:50:40.840Z,69.24
2022-10-17T16:53:09.403Z,71.79
2022-10-17T16:55:37.755Z,75.42
2022-10-17T16:58:06.256Z,74.87
2022-10-17T17:00:34.929Z,76.32
2022-10-17T17:03:03.310Z,74.85
2022-10-17T17:05:31.741Z,76.77
2022-10-17T17:08:01.212Z,76.89
2022-10-17T17:10:29.795Z,75.84
2022-10-17T17:12:58.514Z,72.38
2022-10-17T17:15:26.805Z,71.32
2022-10-17T17:17:55.985Z,72.16
2022-10-17T17:20:24.732Z,69.99
2022-10-17T17:22:53.166Z,69.72
2022-10-17T17:25:22.729Z,70.48
2022-10-17T17:27:51.053Z,71.30
2022-10-17T17:30:19.528Z,71.83
2022-10-17T17:32:48.010Z,75.26
2022-10-17T17:35:16.462Z,80.54
2022-10-17T17:37:44.846Z,82.47
2022-10-17T17:40:13.200Z,83.10
2022-10-17T17:42:41.582Z,82.82
2022-10-17T17:45:10.355Z,83.44
2022-10-17T17:47:38.747Z,84.11
2022-10-17T17:50:07.397Z,84.97
2022-10-17T17:52:35.833Z,84.92
2022-10-17T17:55:04.504Z,85.02
2022-10-17T17:57:32.778Z,85.65
2022-10-17T18:00:01.198Z,84.49
2022-10-17T18:02:32.850Z,84.98
2022-10-17T18:05:01.860Z,86.33
2022-10-17T18:07:30.724Z,85.25
2022-10-17T18:09:59.234Z,86.44
2022-10-17T18:12:27.802Z,86.95
2022-10-17T18:14:56.481Z,87.57
2022-10-17T18:17:24.921Z,87.08
2022-10-17T18:19:53.275Z,89.12
2022-10-17T18:22:23.321Z,88.48
2022-10-17T18:24:51.547Z,88.11
2022-10-17T18:27:19.965Z,88.95
2022-10-17T18:29:48.977Z,88.60
2022-10-17T18:32:17.550Z,87.64
2022-10-17T18:34:46.026Z,88.53
2022-10-17T18:37:14.403Z,86.08
2022-10-17T18:39:42.779Z,88.08
2022-10-17T18:42:12.210Z,89.97
2022-10-17T18:44:40.631Z,88.53
2022-10-17T18:47:09.142Z,86.12
2022-10-17T18:49:37.624Z,88.10
2022-10-17T18:52:06.210Z,90.03
2022-10-17T18:54:35.200Z,91.13
2022-10-17T18:57:03.786Z,91.89
2022-10-17T18:59:32.686Z,91.91
2022-10-17T19:02:01.228Z,92.23
2022-10-17T19:04:30.012Z,90.95
2022-10-17T19:06:58.375Z,90.49
2022-10-17T19:09:27.126Z,92.44
2022-10-17T19:11:56.840Z,93.27
2022-10-17T19:14:26.534Z,92.54
2022-10-17T19:16:55.524Z,93.14
2022-10-17T19:19:25.817Z,93.37
2022-10-17T19:21:54.412Z,88.04
2022-10-17T19:24:28.196Z,85.65
2022-10-17T19:27:02.972Z,90.79
2022-10-17T19:29:32.368Z,92.92
2022-10-17T19:32:02.816Z,93.58
2022-10-17T19:34:31.308Z,93.14
2022-10-17T19:37:00.006Z,93.86
2022-10-17T19:39:28.487Z,93.88
2022-10-17T19:41:57.073Z,92.36
2022-10-17T19:44:26.730Z,93.89
2022-10-17T19:46:57.097Z,93.84
2022-10-17T19:49:25.746Z,94.22
2022-10-17T19:51:54.199Z,93.31
2022-10-17T19:54:22.722Z,93.94
2022-10-17T19:56:51.081Z,92.55
2022-10-17T19:59:19.715Z,92.89
2022-10-17T20:01:48.446Z,94.68
2022-10-17T20:04:16.934Z,95.43
2022-10-17T20:06:45.309Z,95.77
2022-10-17T20:09:17.006Z,96.02
2022-10-17T20:11:46.495Z,96.55
2022-10-17T20:14:15.061Z,97.45
2022-10-17T20:16:45.123Z,97.89
2022-10-17T20:19:13.923Z,97.86
2022-10-17T20:21:43.209Z,97.87
2022-10-17T20:24:15.979Z,97.47
2022-10-17T20:26:45.403Z,97.36
2022-10-17T20:29:17.875Z,97.38
2022-10-17T20:31:47.458Z,97.52
2022-10-17T20:34:18.065Z,97.58
2022-10-17T20:36:47.793Z,97.35
2022-10-17T20:39:18.038Z,96.87
2022-10-17T20:41:47.084Z,97.47
2022-10-17T20:44:16.137Z,96.59
2022-10-17T20:47:00.635Z,96.71
2022-10-17T20:49:31.924Z,95.37
2022-10-17T20:52:01.339Z,94.96
2022-10-17T20:54:30.236Z,95.56
2022-10-17T20:57:02.439Z,95.18
2022-10-17T20:59:36.225Z,96.26
2022-10-17T21:02:05.715Z,97.22
2022-10-17T21:04:45.817Z,96.82
2022-10-17T21:07:15.552Z,91.88
2022-10-17T21:09:44.715Z,89.97
2022-10-17T21:12:18.177Z,88.86
2022-10-17T21:14:54.897Z,91.78
2022-10-17T21:17:24.024Z,93.04
2022-10-17T21:19:52.895Z,96.67
2022-10-17T21:22:21.912Z,97.62
2022-10-17T21:24:50.871Z,97.88
2022-10-17T21:27:19.988Z,96.78
2022-10-17T21:29:49.061Z,98.43
2022-10-17T21:32:31.977Z,99.10
2022-10-17T21:35:07.544Z,99.57
2022-10-17T21:37:36.312Z,100.00
2022-10-17T21:40:06.003Z,100.00
2022-10-17T21:42:35.244Z,100.00
2022-10-17T21:45:10.691Z,100.00
2022-10-17T21:48:11.130Z,100.00
2022-10-17T21:50:33.871Z,100.00
2022-10-17T21:53:02.783Z,100.00
2022-10-17T21:55:31.451Z,100.00
2022-10-17T21:58:00.383Z,100.00
2022-10-17T22:00:29.123Z,100.00
2022-10-17T22:02:58.021Z,100.00
2022-10-17T22:05:26.868Z,99.85
2022-10-17T22:07:55.665Z,100.00
2022-10-17T22:10:24.501Z,100.00
2022-10-17T22:12:53.398Z,100.00
2022-10-17T22:15:22.322Z,100.00
2022-10-17T22:17:51.102Z,100.00
2022-10-17T22:20:20.001Z,100.00
2022-10-17T22:22:49.325Z,100.00
2022-10-17T22:25:18.135Z,99.76
2022-10-17T22:27:48.803Z,98.58
2022-10-17T22:30:19.076Z,97.84
2022-10-17T22:32:48.620Z,99.08
2022-10-17T22:35:18.536Z,98.65
2022-10-17T22:37:47.762Z,98.74
2022-10-17T22:40:16.589Z,98.80
2022-10-17T22:42:45.570Z,98.92
2022-10-17T22:45:15.970Z,98.83
2022-10-17T22:47:45.176Z,99.70
2022-10-17T22:50:15.275Z,99.59
2022-10-17T22:52:44.371Z,100.00
2022-10-17T22:55:14.202Z,100.00
2022-10-17T22:57:43.668Z,99.88
2022-10-17T23:00:13.886Z,99.75
2022-10-17T23:02:44.612Z,99.95
2022-10-17T23:05:14.918Z,100.00
2022-10-17T23:07:44.239Z,100.00
2022-10-17T23:10:14.554Z,100.00
2022-10-17T23:12:44.223Z,99.82
2022-10-17T23:15:13.274Z,100.00
2022-10-17T23:17:43.138Z,100.00
2022-10-17T23:20:13.809Z,99.96
2022-10-17T23:22:43.745Z,100.00
2022-10-17T23:25:13.137Z,100.00
2022-10-17T23:27:43.690Z,100.00
2022-10-17T23:30:15.182Z,100.00
2022-10-17T23:32:46.413Z,100.00
2022-10-17T23:35:15.695Z,100.00
2022-10-17T23:37:45.453Z,99.74
2022-10-17T23:40:15.417Z,98.61
2022-10-17T23:42:45.795Z,97.30
2022-10-17T23:45:15.688Z,99.49
2022-10-17T23:47:44.922Z,100.00
2022-10-17T23:50:14.482Z,100.00
2022-10-17T23:52:45.119Z,100.00
2022-10-17T23:55:15.036Z,100.00
2022-10-17T23:57:44.363Z,100.00
